sensor_id;sensor_type;location;lat;lon;timestamp;temperature;humidity
21495;DHT22;10909;53.590;10.054;2023-05-10T00:02:08;18.40;36.50
21495;DHT22;10909;53.590;10.054;2023-05-10T00:04:33;18.40;36.30
21495;DHT22;10909;53.590;10.054;2023-05-10T00:06:59;18.30;37.10
21495;DHT22;10909;53.590;10.054;2023-05-10T00:09:24;18.20;36.80
21495;DHT22;10909;53.590;10.054;2023-05-10T00:11:51;18.30;37.00
21495;DHT22;10909;53.590;10.054;2023-05-10T00:14:17;18.20;37.40
21495;DHT22;10909;53.590;10.054;2023-05-10T00:16:45;18.20;36.90
21495;DHT22;10909;53.590;10.054;2023-05-10T00:19:11;18.20;36.90
21495;DHT22;10909;53.590;10.054;2023-05-10T00:21:36;18.20;37.10
21495;DHT22;10909;53.590;10.054;2023-05-10T00:24:02;18.20;37.00
21495;DHT22;10909;53.590;10.054;2023-05-10T00:26:28;18.10;37.10
21495;DHT22;10909;53.590;10.054;2023-05-10T00:28:55;18.10;37.20
21495;DHT22;10909;53.590;10.054;2023-05-10T00:31:26;18.10;37.30
21495;DHT22;10909;53.590;10.054;2023-05-10T00:33:54;18.10;37.50
21495;DHT22;10909;53.590;10.054;2023-05-10T00:36:21;18.10;37.20
21495;DHT22;10909;53.590;10.054;2023-05-10T00:38:47;18.00;37.40
21495;DHT22;10909;53.590;10.054;2023-05-10T00:41:12;18.00;37.20
21495;DHT22;10909;53.590;10.054;2023-05-10T00:43:38;18.00;37.50
21495;DHT22;10909;53.590;10.054;2023-05-10T00:46:05;18.00;37.50
21495;DHT22;10909;53.590;10.054;2023-05-10T00:48:33;18.00;38.00
21495;DHT22;10909;53.590;10.054;2023-05-10T00:50:59;17.90;37.70
21495;DHT22;10909;53.590;10.054;2023-05-10T00:53:30;17.90;37.90
21495;DHT22;10909;53.590;10.054;2023-05-10T00:55:56;17.90;37.70
21495;DHT22;10909;53.590;10.054;2023-05-10T00:58:22;17.90;38.20
21495;DHT22;10909;53.590;10.054;2023-05-10T01:00:49;17.90;38.20
21495;DHT22;10909;53.590;10.054;2023-05-10T01:03:16;17.80;38.30
21495;DHT22;10909;53.590;10.054;2023-05-10T01:05:42;17.80;38.30
21495;DHT22;10909;53.590;10.054;2023-05-10T01:08:08;17.80;38.10
21495;DHT22;10909;53.590;10.054;2023-05-10T01:10:35;17.70;38.20
21495;DHT22;10909;53.590;10.054;2023-05-10T01:13:05;17.70;38.10
21495;DHT22;10909;53.590;10.054;2023-05-10T01:15:31;17.70;38.60
21495;DHT22;10909;53.590;10.054;2023-05-10T01:17:57;17.70;38.50
21495;DHT22;10909;53.590;10.054;2023-05-10T01:20:23;17.70;38.60
21495;DHT22;10909;53.590;10.054;2023-05-10T01:23:17;17.60;38.60
21495;DHT22;10909;53.590;10.054;2023-05-10T01:28:55;17.60;39.10
21495;DHT22;10909;53.590;10.054;2023-05-10T01:34:27;17.50;39.00
21495;DHT22;10909;53.590;10.054;2023-05-10T01:37:07;17.50;39.00
21495;DHT22;10909;53.590;10.054;2023-05-10T01:42:51;17.40;39.30
21495;DHT22;10909;53.590;10.054;2023-05-10T01:45:31;17.40;39.60
21495;DHT22;10909;53.590;10.054;2023-05-10T01:48:08;17.30;39.40
21495;DHT22;10909;53.590;10.054;2023-05-10T01:50:43;17.30;39.40
21495;DHT22;10909;53.590;10.054;2023-05-10T01:53:14;17.30;39.20
21495;DHT22;10909;53.590;10.054;2023-05-10T01:55:48;17.20;39.70
21495;DHT22;10909;53.590;10.054;2023-05-10T01:58:23;17.20;39.50
21495;DHT22;10909;53.590;10.054;2023-05-10T02:00:55;17.20;39.80
21495;DHT22;10909;53.590;10.054;2023-05-10T02:03:28;17.10;39.60
21495;DHT22;10909;53.590;10.054;2023-05-10T02:06:04;17.00;39.80
21495;DHT22;10909;53.590;10.054;2023-05-10T02:08:31;17.10;39.90
21495;DHT22;10909;53.590;10.054;2023-05-10T02:11:01;17.00;39.80
21495;DHT22;10909;53.590;10.054;2023-05-10T02:13:32;17.00;40.70
21495;DHT22;10909;53.590;10.054;2023-05-10T02:16:06;17.00;40.20
21495;DHT22;10909;53.590;10.054;2023-05-10T02:18:34;17.00;40.10
21495;DHT22;10909;53.590;10.054;2023-05-10T02:21:04;16.90;39.90
21495;DHT22;10909;53.590;10.054;2023-05-10T02:23:32;16.90;40.10
21495;DHT22;10909;53.590;10.054;2023-05-10T02:26:05;16.90;40.20
21495;DHT22;10909;53.590;10.054;2023-05-10T02:28:35;16.90;40.20
21495;DHT22;10909;53.590;10.054;2023-05-10T02:31:03;16.80;40.40
21495;DHT22;10909;53.590;10.054;2023-05-10T02:33:31;16.80;40.20
21495;DHT22;10909;53.590;10.054;2023-05-10T02:36:02;16.80;40.30
21495;DHT22;10909;53.590;10.054;2023-05-10T02:38:28;16.70;40.30
21495;DHT22;10909;53.590;10.054;2023-05-10T02:40:56;16.70;40.30
21495;DHT22;10909;53.590;10.054;2023-05-10T02:43:23;16.70;40.30
21495;DHT22;10909;53.590;10.054;2023-05-10T02:45:50;16.70;40.40
21495;DHT22;10909;53.590;10.054;2023-05-10T02:48:16;16.70;40.60
21495;DHT22;10909;53.590;10.054;2023-05-10T02:50:45;16.60;40.90
21495;DHT22;10909;53.590;10.054;2023-05-10T02:53:22;16.60;40.80
21495;DHT22;10909;53.590;10.054;2023-05-10T02:55:50;16.60;41.00
21495;DHT22;10909;53.590;10.054;2023-05-10T02:58:17;16.60;41.10
21495;DHT22;10909;53.590;10.054;2023-05-10T03:00:46;16.50;40.70
21495;DHT22;10909;53.590;10.054;2023-05-10T03:03:17;16.50;40.80
21495;DHT22;10909;53.590;10.054;2023-05-10T03:05:47;16.50;40.90
21495;DHT22;10909;53.590;10.054;2023-05-10T03:08:14;16.50;40.90
21495;DHT22;10909;53.590;10.054;2023-05-10T03:11:21;16.50;41.10
21495;DHT22;10909;53.590;10.054;2023-05-10T03:14:03;16.50;41.80
21495;DHT22;10909;53.590;10.054;2023-05-10T03:16:41;16.50;41.30
21495;DHT22;10909;53.590;10.054;2023-05-10T03:21:50;16.40;41.40
21495;DHT22;10909;53.590;10.054;2023-05-10T03:24:21;16.40;41.30
21495;DHT22;10909;53.590;10.054;2023-05-10T03:26:50;16.40;41.50
21495;DHT22;10909;53.590;10.054;2023-05-10T03:29:20;16.40;41.70
21495;DHT22;10909;53.590;10.054;2023-05-10T03:31:52;16.30;41.60
21495;DHT22;10909;53.590;10.054;2023-05-10T03:34:23;16.30;41.20
21495;DHT22;10909;53.590;10.054;2023-05-10T03:36:52;16.30;41.90
21495;DHT22;10909;53.590;10.054;2023-05-10T03:39:17;16.30;41.70
21495;DHT22;10909;53.590;10.054;2023-05-10T03:41:43;16.30;41.70
21495;DHT22;10909;53.590;10.054;2023-05-10T03:44:09;16.30;42.20
21495;DHT22;10909;53.590;10.054;2023-05-10T03:46:35;16.30;41.90
21495;DHT22;10909;53.590;10.054;2023-05-10T03:49:02;16.30;42.00
21495;DHT22;10909;53.590;10.054;2023-05-10T03:51:29;16.20;42.10
21495;DHT22;10909;53.590;10.054;2023-05-10T03:54:02;16.20;42.10
21495;DHT22;10909;53.590;10.054;2023-05-10T03:56:28;16.20;42.20
21495;DHT22;10909;53.590;10.054;2023-05-10T03:58:54;16.20;42.60
21495;DHT22;10909;53.590;10.054;2023-05-10T04:01:19;16.20;42.90
21495;DHT22;10909;53.590;10.054;2023-05-10T04:03:46;16.20;42.60
21495;DHT22;10909;53.590;10.054;2023-05-10T04:06:15;16.20;42.60
21495;DHT22;10909;53.590;10.054;2023-05-10T04:11:25;16.20;43.00
21495;DHT22;10909;53.590;10.054;2023-05-10T04:13:51;16.20;43.10
21495;DHT22;10909;53.590;10.054;2023-05-10T04:16:17;16.10;43.10
21495;DHT22;10909;53.590;10.054;2023-05-10T04:18:43;16.20;43.10
21495;DHT22;10909;53.590;10.054;2023-05-10T04:21:12;16.10;43.10
21495;DHT22;10909;53.590;10.054;2023-05-10T04:23:39;16.20;43.20
21495;DHT22;10909;53.590;10.054;2023-05-10T04:26:07;16.20;43.10
21495;DHT22;10909;53.590;10.054;2023-05-10T04:28:32;16.10;43.30
21495;DHT22;10909;53.590;10.054;2023-05-10T04:31:16;16.20;43.50
21495;DHT22;10909;53.590;10.054;2023-05-10T04:33:48;16.20;43.80
21495;DHT22;10909;53.590;10.054;2023-05-10T04:36:14;16.20;43.40
21495;DHT22;10909;53.590;10.054;2023-05-10T04:38:41;16.20;43.40
21495;DHT22;10909;53.590;10.054;2023-05-10T04:41:11;16.20;43.70
21495;DHT22;10909;53.590;10.054;2023-05-10T04:43:49;16.20;43.50
21495;DHT22;10909;53.590;10.054;2023-05-10T04:46:14;16.20;44.00
21495;DHT22;10909;53.590;10.054;2023-05-10T04:48:40;16.20;43.70
21495;DHT22;10909;53.590;10.054;2023-05-10T04:51:06;16.20;43.60
21495;DHT22;10909;53.590;10.054;2023-05-10T04:53:32;16.20;43.60
21495;DHT22;10909;53.590;10.054;2023-05-10T04:55:58;16.20;44.40
21495;DHT22;10909;53.590;10.054;2023-05-10T04:58:23;16.20;43.80
21495;DHT22;10909;53.590;10.054;2023-05-10T05:00:49;16.20;43.80
21495;DHT22;10909;53.590;10.054;2023-05-10T05:03:15;16.20;44.40
21495;DHT22;10909;53.590;10.054;2023-05-10T05:05:43;16.20;44.00
21495;DHT22;10909;53.590;10.054;2023-05-10T05:08:08;16.20;44.10
21495;DHT22;10909;53.590;10.054;2023-05-10T05:10:34;16.30;44.90
21495;DHT22;10909;53.590;10.054;2023-05-10T05:13:02;16.30;43.90
21495;DHT22;10909;53.590;10.054;2023-05-10T05:15:34;16.30;44.20
21495;DHT22;10909;53.590;10.054;2023-05-10T05:18:00;16.40;44.20
21495;DHT22;10909;53.590;10.054;2023-05-10T05:20:26;16.40;44.40
21495;DHT22;10909;53.590;10.054;2023-05-10T05:22:52;16.50;44.30
21495;DHT22;10909;53.590;10.054;2023-05-10T05:25:18;16.50;44.70
21495;DHT22;10909;53.590;10.054;2023-05-10T05:27:43;16.60;44.30
21495;DHT22;10909;53.590;10.054;2023-05-10T05:30:09;16.60;44.30
21495;DHT22;10909;53.590;10.054;2023-05-10T05:32:36;16.70;44.30
21495;DHT22;10909;53.590;10.054;2023-05-10T05:35:05;16.80;44.30
21495;DHT22;10909;53.590;10.054;2023-05-10T05:37:31;16.80;44.20
21495;DHT22;10909;53.590;10.054;2023-05-10T05:39:56;16.80;44.40
21495;DHT22;10909;53.590;10.054;2023-05-10T05:42:22;16.90;44.40
21495;DHT22;10909;53.590;10.054;2023-05-10T05:44:50;16.90;44.20
21495;DHT22;10909;53.590;10.054;2023-05-10T05:47:21;17.00;44.60
21495;DHT22;10909;53.590;10.054;2023-05-10T05:49:47;17.10;44.30
21495;DHT22;10909;53.590;10.054;2023-05-10T05:52:12;17.20;44.50
21495;DHT22;10909;53.590;10.054;2023-05-10T05:54:41;17.20;44.30
21495;DHT22;10909;53.590;10.054;2023-05-10T05:57:14;17.30;44.40
21495;DHT22;10909;53.590;10.054;2023-05-10T05:59:43;17.30;44.30
21495;DHT22;10909;53.590;10.054;2023-05-10T06:02:17;17.40;44.20
21495;DHT22;10909;53.590;10.054;2023-05-10T06:04:49;17.50;44.00
21495;DHT22;10909;53.590;10.054;2023-05-10T06:07:16;17.60;44.30
21495;DHT22;10909;53.590;10.054;2023-05-10T06:09:42;17.70;44.30
21495;DHT22;10909;53.590;10.054;2023-05-10T06:12:10;17.80;44.00
21495;DHT22;10909;53.590;10.054;2023-05-10T06:14:37;17.90;44.10
21495;DHT22;10909;53.590;10.054;2023-05-10T06:17:06;17.90;44.00
21495;DHT22;10909;53.590;10.054;2023-05-10T06:19:32;18.00;44.20
21495;DHT22;10909;53.590;10.054;2023-05-10T06:21:58;18.10;43.90
21495;DHT22;10909;53.590;10.054;2023-05-10T06:24:25;18.20;44.10
21495;DHT22;10909;53.590;10.054;2023-05-10T06:26:54;18.30;44.00
21495;DHT22;10909;53.590;10.054;2023-05-10T06:29:24;18.30;43.80
21495;DHT22;10909;53.590;10.054;2023-05-10T06:32:04;18.40;43.80
21495;DHT22;10909;53.590;10.054;2023-05-10T06:34:32;18.50;43.90
21495;DHT22;10909;53.590;10.054;2023-05-10T06:37:07;18.50;43.60
21495;DHT22;10909;53.590;10.054;2023-05-10T06:39:36;18.60;43.50
21495;DHT22;10909;53.590;10.054;2023-05-10T06:42:03;18.60;43.40
21495;DHT22;10909;53.590;10.054;2023-05-10T06:44:30;18.70;43.40
21495;DHT22;10909;53.590;10.054;2023-05-10T06:47:01;18.80;43.60
21495;DHT22;10909;53.590;10.054;2023-05-10T06:49:29;18.90;43.60
21495;DHT22;10909;53.590;10.054;2023-05-10T06:52:05;18.90;43.20
21495;DHT22;10909;53.590;10.054;2023-05-10T06:54:40;18.90;43.40
21495;DHT22;10909;53.590;10.054;2023-05-10T06:57:09;18.90;43.20
21495;DHT22;10909;53.590;10.054;2023-05-10T06:59:35;18.90;43.10
21495;DHT22;10909;53.590;10.054;2023-05-10T07:02:07;18.90;43.20
21495;DHT22;10909;53.590;10.054;2023-05-10T07:04:33;18.90;43.40
21495;DHT22;10909;53.590;10.054;2023-05-10T07:07:00;18.80;43.50
21495;DHT22;10909;53.590;10.054;2023-05-10T07:09:30;18.90;43.30
21495;DHT22;10909;53.590;10.054;2023-05-10T07:11:57;19.00;43.30
21495;DHT22;10909;53.590;10.054;2023-05-10T07:14:24;19.10;43.30
21495;DHT22;10909;53.590;10.054;2023-05-10T07:16:50;19.10;43.40
21495;DHT22;10909;53.590;10.054;2023-05-10T07:19:16;19.20;43.30
21495;DHT22;10909;53.590;10.054;2023-05-10T07:21:42;19.20;43.10
21495;DHT22;10909;53.590;10.054;2023-05-10T07:24:09;19.30;43.30
21495;DHT22;10909;53.590;10.054;2023-05-10T07:26:37;19.40;43.30
21495;DHT22;10909;53.590;10.054;2023-05-10T07:29:02;19.40;43.20
21495;DHT22;10909;53.590;10.054;2023-05-10T07:31:28;19.50;43.20
21495;DHT22;10909;53.590;10.054;2023-05-10T07:33:54;19.50;43.00
21495;DHT22;10909;53.590;10.054;2023-05-10T07:36:20;19.60;43.20
21495;DHT22;10909;53.590;10.054;2023-05-10T07:38:45;19.60;43.10
21495;DHT22;10909;53.590;10.054;2023-05-10T07:41:12;19.70;43.20
21495;DHT22;10909;53.590;10.054;2023-05-10T07:43:38;19.80;43.10
21495;DHT22;10909;53.590;10.054;2023-05-10T07:46:16;19.90;43.10
21495;DHT22;10909;53.590;10.054;2023-05-10T07:48:45;19.90;43.20
21495;DHT22;10909;53.590;10.054;2023-05-10T07:51:12;20.00;42.90
21495;DHT22;10909;53.590;10.054;2023-05-10T07:53:42;20.10;43.10
21495;DHT22;10909;53.590;10.054;2023-05-10T07:56:24;20.10;43.00
21495;DHT22;10909;53.590;10.054;2023-05-10T07:59:02;20.20;43.30
21495;DHT22;10909;53.590;10.054;2023-05-10T08:02:01;20.20;43.00
21495;DHT22;10909;53.590;10.054;2023-05-10T08:05:23;20.30;43.00
21495;DHT22;10909;53.590;10.054;2023-05-10T08:07:50;20.40;43.00
21495;DHT22;10909;53.590;10.054;2023-05-10T08:10:15;20.50;42.90
21495;DHT22;10909;53.590;10.054;2023-05-10T08:12:42;20.50;42.70
21495;DHT22;10909;53.590;10.054;2023-05-10T08:15:10;20.60;42.70
21495;DHT22;10909;53.590;10.054;2023-05-10T08:17:36;20.70;42.50
21495;DHT22;10909;53.590;10.054;2023-05-10T08:20:01;20.80;42.50
21495;DHT22;10909;53.590;10.054;2023-05-10T08:22:27;20.80;42.30
21495;DHT22;10909;53.590;10.054;2023-05-10T08:24:53;20.90;42.20
21495;DHT22;10909;53.590;10.054;2023-05-10T08:27:18;20.90;42.20
21495;DHT22;10909;53.590;10.054;2023-05-10T08:29:44;21.00;42.10
21495;DHT22;10909;53.590;10.054;2023-05-10T08:32:10;21.00;42.00
21495;DHT22;10909;53.590;10.054;2023-05-10T08:34:35;21.00;41.90
21495;DHT22;10909;53.590;10.054;2023-05-10T08:37:01;21.00;41.90
21495;DHT22;10909;53.590;10.054;2023-05-10T08:39:28;21.00;41.80
21495;DHT22;10909;53.590;10.054;2023-05-10T08:42:01;21.00;41.70
21495;DHT22;10909;53.590;10.054;2023-05-10T08:44:31;21.00;41.80
21495;DHT22;10909;53.590;10.054;2023-05-10T08:46:59;21.10;41.80
21495;DHT22;10909;53.590;10.054;2023-05-10T08:49:27;21.10;41.70
21495;DHT22;10909;53.590;10.054;2023-05-10T08:51:55;21.10;41.80
21495;DHT22;10909;53.590;10.054;2023-05-10T08:54:26;21.20;41.80
21495;DHT22;10909;53.590;10.054;2023-05-10T08:57:12;21.20;41.70
21495;DHT22;10909;53.590;10.054;2023-05-10T08:59:44;21.30;41.60
21495;DHT22;10909;53.590;10.054;2023-05-10T09:02:13;21.30;41.70
21495;DHT22;10909;53.590;10.054;2023-05-10T09:04:39;21.30;41.60
21495;DHT22;10909;53.590;10.054;2023-05-10T09:07:06;21.30;41.60
21495;DHT22;10909;53.590;10.054;2023-05-10T09:09:32;21.30;41.60
21495;DHT22;10909;53.590;10.054;2023-05-10T09:11:57;21.30;41.60
21495;DHT22;10909;53.590;10.054;2023-05-10T09:14:24;21.40;41.90
21495;DHT22;10909;53.590;10.054;2023-05-10T09:16:54;21.40;41.80
21495;DHT22;10909;53.590;10.054;2023-05-10T09:19:22;21.50;41.90
21495;DHT22;10909;53.590;10.054;2023-05-10T09:21:52;21.50;41.70
21495;DHT22;10909;53.590;10.054;2023-05-10T09:24:29;21.60;41.70
21495;DHT22;10909;53.590;10.054;2023-05-10T09:27:14;21.50;41.70
21495;DHT22;10909;53.590;10.054;2023-05-10T09:29:42;21.60;41.80
21495;DHT22;10909;53.590;10.054;2023-05-10T09:32:08;21.70;41.80
21495;DHT22;10909;53.590;10.054;2023-05-10T09:34:33;21.70;41.80
21495;DHT22;10909;53.590;10.054;2023-05-10T09:37:02;21.70;41.80
21495;DHT22;10909;53.590;10.054;2023-05-10T09:39:37;21.70;41.80
21495;DHT22;10909;53.590;10.054;2023-05-10T09:42:06;21.70;41.90
21495;DHT22;10909;53.590;10.054;2023-05-10T09:44:33;21.80;41.80
21495;DHT22;10909;53.590;10.054;2023-05-10T09:47:05;21.70;41.70
21495;DHT22;10909;53.590;10.054;2023-05-10T09:49:31;21.70;41.80
21495;DHT22;10909;53.590;10.054;2023-05-10T09:52:02;21.70;42.20
21495;DHT22;10909;53.590;10.054;2023-05-10T09:54:37;21.70;42.40
21495;DHT22;10909;53.590;10.054;2023-05-10T09:57:20;21.70;42.70
21495;DHT22;10909;53.590;10.054;2023-05-10T09:59:48;21.60;42.70
21495;DHT22;10909;53.590;10.054;2023-05-10T10:02:28;21.60;42.60
21495;DHT22;10909;53.590;10.054;2023-05-10T10:04:55;21.50;43.30
21495;DHT22;10909;53.590;10.054;2023-05-10T10:07:24;21.50;43.50
21495;DHT22;10909;53.590;10.054;2023-05-10T10:09:51;21.30;43.60
21495;DHT22;10909;53.590;10.054;2023-05-10T10:12:20;21.30;43.80
21495;DHT22;10909;53.590;10.054;2023-05-10T10:14:47;21.10;43.90
21495;DHT22;10909;53.590;10.054;2023-05-10T10:17:18;21.00;45.00
21495;DHT22;10909;53.590;10.054;2023-05-10T10:19:56;20.90;45.40
21495;DHT22;10909;53.590;10.054;2023-05-10T10:22:38;20.70;46.20
21495;DHT22;10909;53.590;10.054;2023-05-10T10:25:24;20.60;46.90
21495;DHT22;10909;53.590;10.054;2023-05-10T10:30:56;20.40;47.70
21495;DHT22;10909;53.590;10.054;2023-05-10T10:36:23;20.20;48.30
21495;DHT22;10909;53.590;10.054;2023-05-10T10:39:10;20.10;47.60
21495;DHT22;10909;53.590;10.054;2023-05-10T10:41:54;20.00;48.70
21495;DHT22;10909;53.590;10.054;2023-05-10T10:44:38;19.90;49.60
21495;DHT22;10909;53.590;10.054;2023-05-10T10:50:03;19.90;49.60
21495;DHT22;10909;53.590;10.054;2023-05-10T10:52:54;19.80;49.20
21495;DHT22;10909;53.590;10.054;2023-05-10T10:56:10;19.80;50.70
21495;DHT22;10909;53.590;10.054;2023-05-10T11:01:15;19.70;50.70
21495;DHT22;10909;53.590;10.054;2023-05-10T11:06:33;19.60;52.10
21495;DHT22;10909;53.590;10.054;2023-05-10T11:09:10;19.60;51.60
21495;DHT22;10909;53.590;10.054;2023-05-10T11:11:54;19.50;52.00
21495;DHT22;10909;53.590;10.054;2023-05-10T11:16:55;19.40;52.20
21495;DHT22;10909;53.590;10.054;2023-05-10T11:19:27;19.50;52.80
21495;DHT22;10909;53.590;10.054;2023-05-10T11:22:13;19.50;52.70
21495;DHT22;10909;53.590;10.054;2023-05-10T11:27:11;19.50;52.50
21495;DHT22;10909;53.590;10.054;2023-05-10T11:29:38;19.50;52.70
21495;DHT22;10909;53.590;10.054;2023-05-10T11:32:05;19.60;52.80
21495;DHT22;10909;53.590;10.054;2023-05-10T11:34:33;19.60;53.10
21495;DHT22;10909;53.590;10.054;2023-05-10T11:36:59;19.60;53.00
21495;DHT22;10909;53.590;10.054;2023-05-10T11:39:27;19.70;53.80
21495;DHT22;10909;53.590;10.054;2023-05-10T11:41:53;19.70;53.10
21495;DHT22;10909;53.590;10.054;2023-05-10T11:44:20;19.70;52.90
21495;DHT22;10909;53.590;10.054;2023-05-10T11:46:46;19.70;53.30
21495;DHT22;10909;53.590;10.054;2023-05-10T11:49:12;19.70;53.60
21495;DHT22;10909;53.590;10.054;2023-05-10T11:51:38;19.80;53.40
21495;DHT22;10909;53.590;10.054;2023-05-10T11:54:14;19.80;53.30
21495;DHT22;10909;53.590;10.054;2023-05-10T11:56:40;19.80;54.30
21495;DHT22;10909;53.590;10.054;2023-05-10T11:59:07;19.70;54.00
21495;DHT22;10909;53.590;10.054;2023-05-10T12:01:34;19.70;54.00
21495;DHT22;10909;53.590;10.054;2023-05-10T12:04:01;19.80;54.10
21495;DHT22;10909;53.590;10.054;2023-05-10T12:06:31;19.70;54.20
21495;DHT22;10909;53.590;10.054;2023-05-10T12:08:58;19.70;54.20
21495;DHT22;10909;53.590;10.054;2023-05-10T12:11:25;19.60;54.70
21495;DHT22;10909;53.590;10.054;2023-05-10T12:13:53;19.60;55.20
21495;DHT22;10909;53.590;10.054;2023-05-10T12:16:29;19.60;54.80
21495;DHT22;10909;53.590;10.054;2023-05-10T12:18:59;19.60;55.30
21495;DHT22;10909;53.590;10.054;2023-05-10T12:21:27;19.60;55.00
21495;DHT22;10909;53.590;10.054;2023-05-10T12:23:58;19.60;54.80
21495;DHT22;10909;53.590;10.054;2023-05-10T12:26:30;19.60;55.10
21495;DHT22;10909;53.590;10.054;2023-05-10T12:29:15;19.70;55.20
21495;DHT22;10909;53.590;10.054;2023-05-10T12:32:00;19.70;56.20
21495;DHT22;10909;53.590;10.054;2023-05-10T12:34:34;19.80;56.60
21495;DHT22;10909;53.590;10.054;2023-05-10T12:37:04;19.80;55.50
21495;DHT22;10909;53.590;10.054;2023-05-10T12:39:44;19.80;55.30
21495;DHT22;10909;53.590;10.054;2023-05-10T12:42:11;19.90;56.50
21495;DHT22;10909;53.590;10.054;2023-05-10T12:44:38;19.90;55.70
21495;DHT22;10909;53.590;10.054;2023-05-10T12:47:09;20.00;55.90
21495;DHT22;10909;53.590;10.054;2023-05-10T12:49:39;20.10;56.10
21495;DHT22;10909;53.590;10.054;2023-05-10T12:52:10;20.10;56.20
21495;DHT22;10909;53.590;10.054;2023-05-10T12:54:38;20.30;56.20
21495;DHT22;10909;53.590;10.054;2023-05-10T12:57:08;20.40;56.40
21495;DHT22;10909;53.590;10.054;2023-05-10T12:59:36;20.50;56.60
21495;DHT22;10909;53.590;10.054;2023-05-10T13:02:03;20.50;56.10
21495;DHT22;10909;53.590;10.054;2023-05-10T13:04:29;20.60;56.50
21495;DHT22;10909;53.590;10.054;2023-05-10T13:07:01;20.70;56.20
21495;DHT22;10909;53.590;10.054;2023-05-10T13:09:29;20.80;56.40
21495;DHT22;10909;53.590;10.054;2023-05-10T13:11:55;20.90;56.10
21495;DHT22;10909;53.590;10.054;2023-05-10T13:14:23;21.00;56.30
21495;DHT22;10909;53.590;10.054;2023-05-10T13:16:48;21.10;56.20
21495;DHT22;10909;53.590;10.054;2023-05-10T13:19:15;21.20;56.20
21495;DHT22;10909;53.590;10.054;2023-05-10T13:21:41;21.20;55.80
21495;DHT22;10909;53.590;10.054;2023-05-10T13:24:09;21.30;55.60
21495;DHT22;10909;53.590;10.054;2023-05-10T13:26:40;21.30;55.40
21495;DHT22;10909;53.590;10.054;2023-05-10T13:29:06;21.30;55.30
21495;DHT22;10909;53.590;10.054;2023-05-10T13:31:34;21.40;55.50
21495;DHT22;10909;53.590;10.054;2023-05-10T13:34:18;21.50;55.70
21495;DHT22;10909;53.590;10.054;2023-05-10T13:36:49;21.60;56.00
21495;DHT22;10909;53.590;10.054;2023-05-10T13:39:21;21.70;55.90
21495;DHT22;10909;53.590;10.054;2023-05-10T13:44:20;21.90;55.20
21495;DHT22;10909;53.590;10.054;2023-05-10T13:46:48;21.90;55.00
21495;DHT22;10909;53.590;10.054;2023-05-10T13:49:15;22.00;54.80
21495;DHT22;10909;53.590;10.054;2023-05-10T13:51:56;22.00;54.70
21495;DHT22;10909;53.590;10.054;2023-05-10T13:54:24;22.10;54.90
21495;DHT22;10909;53.590;10.054;2023-05-10T13:57:02;22.10;54.60
21495;DHT22;10909;53.590;10.054;2023-05-10T13:59:30;22.10;54.50
21495;DHT22;10909;53.590;10.054;2023-05-10T14:01:58;22.20;54.60
21495;DHT22;10909;53.590;10.054;2023-05-10T14:04:26;22.20;54.60
21495;DHT22;10909;53.590;10.054;2023-05-10T14:06:57;22.20;54.60
21495;DHT22;10909;53.590;10.054;2023-05-10T14:09:27;22.20;54.50
21495;DHT22;10909;53.590;10.054;2023-05-10T14:12:01;22.20;54.40
21495;DHT22;10909;53.590;10.054;2023-05-10T14:14:29;22.10;54.30
21495;DHT22;10909;53.590;10.054;2023-05-10T14:16:59;22.10;54.50
21495;DHT22;10909;53.590;10.054;2023-05-10T14:19:25;22.10;54.40
21495;DHT22;10909;53.590;10.054;2023-05-10T14:21:53;22.10;55.50
21495;DHT22;10909;53.590;10.054;2023-05-10T14:24:19;22.20;54.50
21495;DHT22;10909;53.590;10.054;2023-05-10T14:26:47;22.20;54.30
21495;DHT22;10909;53.590;10.054;2023-05-10T14:29:23;22.30;54.30
21495;DHT22;10909;53.590;10.054;2023-05-10T14:31:51;22.30;54.90
21495;DHT22;10909;53.590;10.054;2023-05-10T14:34:19;22.30;54.00
21495;DHT22;10909;53.590;10.054;2023-05-10T14:36:46;22.30;53.50
21495;DHT22;10909;53.590;10.054;2023-05-10T14:39:12;22.30;53.90
21495;DHT22;10909;53.590;10.054;2023-05-10T14:41:39;22.30;53.40
21495;DHT22;10909;53.590;10.054;2023-05-10T14:44:09;22.30;53.40
21495;DHT22;10909;53.590;10.054;2023-05-10T14:46:39;22.30;53.20
21495;DHT22;10909;53.590;10.054;2023-05-10T14:49:08;22.40;53.30
21495;DHT22;10909;53.590;10.054;2023-05-10T14:51:36;22.30;53.20
21495;DHT22;10909;53.590;10.054;2023-05-10T14:54:07;22.40;53.30
21495;DHT22;10909;53.590;10.054;2023-05-10T14:56:33;22.30;52.50
21495;DHT22;10909;53.590;10.054;2023-05-10T14:58:59;22.20;52.10
21495;DHT22;10909;53.590;10.054;2023-05-10T15:01:30;22.10;52.30
21495;DHT22;10909;53.590;10.054;2023-05-10T15:04:04;22.00;52.90
21495;DHT22;10909;53.590;10.054;2023-05-10T15:06:37;21.80;52.80
21495;DHT22;10909;53.590;10.054;2023-05-10T15:09:05;21.90;53.40
21495;DHT22;10909;53.590;10.054;2023-05-10T15:11:31;21.90;53.40
21495;DHT22;10909;53.590;10.054;2023-05-10T15:13:59;21.90;53.30
21495;DHT22;10909;53.590;10.054;2023-05-10T15:16:31;21.90;53.40
21495;DHT22;10909;53.590;10.054;2023-05-10T15:18:58;21.90;54.00
21495;DHT22;10909;53.590;10.054;2023-05-10T15:21:28;21.90;53.60
21495;DHT22;10909;53.590;10.054;2023-05-10T15:24:00;21.90;53.50
21495;DHT22;10909;53.590;10.054;2023-05-10T15:26:30;21.90;53.80
21495;DHT22;10909;53.590;10.054;2023-05-10T15:28:56;21.90;54.00
21495;DHT22;10909;53.590;10.054;2023-05-10T15:31:22;22.00;54.00
21495;DHT22;10909;53.590;10.054;2023-05-10T15:33:48;22.00;54.10
21495;DHT22;10909;53.590;10.054;2023-05-10T15:36:13;22.00;53.70
21495;DHT22;10909;53.590;10.054;2023-05-10T15:38:39;22.00;53.80
21495;DHT22;10909;53.590;10.054;2023-05-10T15:41:06;22.10;53.70
21495;DHT22;10909;53.590;10.054;2023-05-10T15:43:33;22.10;54.00
21495;DHT22;10909;53.590;10.054;2023-05-10T15:46:00;22.00;54.00
21495;DHT22;10909;53.590;10.054;2023-05-10T15:48:26;22.00;53.90
21495;DHT22;10909;53.590;10.054;2023-05-10T15:50:51;22.10;54.00
21495;DHT22;10909;53.590;10.054;2023-05-10T15:53:17;22.10;54.00
21495;DHT22;10909;53.590;10.054;2023-05-10T15:55:43;22.00;53.80
21495;DHT22;10909;53.590;10.054;2023-05-10T15:58:09;22.00;53.80
21495;DHT22;10909;53.590;10.054;2023-05-10T16:00:36;22.00;53.80
21495;DHT22;10909;53.590;10.054;2023-05-10T16:03:04;22.00;53.90
21495;DHT22;10909;53.590;10.054;2023-05-10T16:05:30;22.00;53.80
21495;DHT22;10909;53.590;10.054;2023-05-10T16:07:59;22.00;53.90